createdAt,value
2018-12-27T00:01:55.710Z,50.00
2018-12-27T00:04:25.299Z,48.57
2018-12-27T00:06:54.855Z,49.43
2018-12-27T00:09:24.456Z,52.33
2018-12-27T00:11:53.969Z,49.27
2018-12-27T00:14:23.571Z,47.93
2018-12-27T00:16:53.081Z,44.20
2018-12-27T00:19:22.626Z,46.40
2018-12-27T00:21:52.184Z,43.57
2018-12-27T00:24:21.686Z,43.03
2018-12-27T00:26:51.247Z,46.93
2018-12-27T00:29:20.756Z,49.23
2018-12-27T00:31:50.457Z,42.60
2018-12-27T00:34:20.119Z,45.17
2018-12-27T00:36:49.875Z,44.37
2018-12-27T00:39:19.539Z,43.17
2018-12-27T00:41:49.197Z,45.37
2018-12-27T00:44:18.900Z,45.87
2018-12-27T00:46:48.582Z,45.93
2018-12-27T00:49:18.267Z,42.47
2018-12-27T00:51:47.978Z,43.70
2018-12-27T00:54:17.741Z,42.40
2018-12-27T00:56:47.452Z,40.23
2018-12-27T00:59:17.210Z,46.03
2018-12-27T01:01:46.893Z,46.40
2018-12-27T01:04:16.630Z,42.03
2018-12-27T01:06:46.305Z,37.33
2018-12-27T01:09:16.005Z,39.93
2018-12-27T01:11:45.707Z,37.70
2018-12-27T01:14:15.378Z,36.90
2018-12-27T01:16:45.086Z,37.40
2018-12-27T01:19:14.913Z,40.47
2018-12-27T01:21:44.602Z,37.43
2018-12-27T01:24:14.254Z,41.13
2018-12-27T01:26:43.962Z,37.83
2018-12-27T01:29:13.631Z,34.20
2018-12-27T01:31:50.465Z,36.63
2018-12-27T01:34:14.624Z,34.60
2018-12-27T01:36:44.421Z,35.40
2018-12-27T01:39:14.098Z,32.27
2018-12-27T01:41:43.753Z,33.97
2018-12-27T01:44:13.429Z,30.57
2018-12-27T01:46:43.084Z,36.40
2018-12-27T01:49:12.767Z,30.90
2018-12-27T01:51:42.398Z,34.57
2018-12-27T01:54:12.121Z,37.87
2018-12-27T01:56:41.783Z,32.57
2018-12-27T01:59:11.428Z,29.60
2018-12-27T02:01:41.094Z,31.83
2018-12-27T02:04:10.732Z,29.83
2018-12-27T02:06:40.439Z,29.00
2018-12-27T02:09:10.043Z,29.37
2018-12-27T02:11:39.667Z,32.93
2018-12-27T02:14:09.386Z,25.73
2018-12-27T02:16:39.039Z,34.20
2018-12-27T02:19:08.731Z,29.23
2018-12-27T02:21:38.373Z,32.83
2018-12-27T02:24:08.075Z,29.30
2018-12-27T02:26:37.705Z,33.37
2018-12-27T02:29:07.383Z,34.60
2018-12-27T02:31:37.259Z,34.63
2018-12-27T02:34:07.043Z,32.00
2018-12-27T02:36:36.760Z,26.97
2018-12-27T02:39:07.863Z,30.47
2018-12-27T02:41:37.499Z,30.37
2018-12-27T02:44:07.162Z,30.10
2018-12-27T02:46:36.819Z,30.30
2018-12-27T02:49:06.509Z,29.93
2018-12-27T02:51:36.196Z,30.40
2018-12-27T02:54:05.844Z,32.43
2018-12-27T02:56:35.612Z,27.83
2018-12-27T02:59:05.289Z,27.83
2018-12-27T03:01:34.933Z,31.67
2018-12-27T03:04:04.624Z,33.47
2018-12-27T03:06:34.297Z,31.63
2018-12-27T03:09:04.513Z,36.47
2018-12-27T03:11:34.091Z,29.07
2018-12-27T03:14:03.778Z,28.53
2018-12-27T03:16:33.443Z,32.60
2018-12-27T03:19:03.151Z,33.87
2018-12-27T03:21:32.858Z,29.60
2018-12-27T03:24:02.517Z,27.50
2018-12-27T03:26:32.171Z,34.47
2018-12-27T03:29:01.823Z,30.53
2018-12-27T03:31:31.505Z,33.10
2018-12-27T03:34:01.148Z,30.33
2018-12-27T03:36:30.886Z,34.47
2018-12-27T03:39:00.570Z,34.57
2018-12-27T03:41:30.165Z,32.63
2018-12-27T03:43:59.791Z,34.97
2018-12-27T03:46:29.480Z,30.93
2018-12-27T03:48:59.149Z,27.37
2018-12-27T03:51:28.954Z,31.80
2018-12-27T03:53:58.724Z,26.83
2018-12-27T03:56:28.386Z,28.23
2018-12-27T03:58:58.038Z,31.00
2018-12-27T04:01:27.749Z,29.23
2018-12-27T04:04:01.584Z,27.47
2018-12-27T04:06:28.756Z,27.30
2018-12-27T04:08:58.465Z,25.27
2018-12-27T04:11:28.163Z,24.63
2018-12-27T04:13:57.781Z,24.33
2018-12-27T04:16:27.295Z,27.47
2018-12-27T04:18:56.865Z,26.50
2018-12-27T04:21:26.474Z,26.03
2018-12-27T04:23:57.073Z,23.53
2018-12-27T04:26:27.850Z,28.47
2018-12-27T04:28:57.372Z,24.50
2018-12-27T04:31:27.188Z,24.57
2018-12-27T04:33:56.944Z,23.93
2018-12-27T04:36:26.839Z,25.60
2018-12-27T04:38:56.384Z,24.33
2018-12-27T04:41:25.903Z,22.97
2018-12-27T04:43:55.432Z,22.23
2018-12-27T04:46:24.935Z,22.47
2018-12-27T04:48:54.430Z,24.43
2018-12-27T04:51:23.975Z,22.80
2018-12-27T04:53:53.584Z,21.63
2018-12-27T04:56:23.222Z,20.90
2018-12-27T04:58:52.677Z,20.03
2018-12-27T05:01:22.254Z,21.27
2018-12-27T05:03:51.755Z,24.20
2018-12-27T05:06:21.332Z,24.13
2018-12-27T05:08:50.858Z,22.43
2018-12-27T05:11:20.523Z,21.23
2018-12-27T05:13:49.971Z,21.77
2018-12-27T05:16:19.449Z,20.27
2018-12-27T05:18:48.970Z,20.57
2018-12-27T05:21:18.434Z,23.67
2018-12-27T05:23:48.012Z,19.03
2018-12-27T05:26:17.489Z,20.87
2018-12-27T05:28:46.954Z,18.50
2018-12-27T05:31:16.455Z,19.90
2018-12-27T05:33:46.010Z,19.83
2018-12-27T05:36:15.486Z,16.57
2018-12-27T05:38:45.079Z,19.47
2018-12-27T05:41:14.576Z,18.87
2018-12-27T05:43:44.124Z,20.13
2018-12-27T05:46:13.596Z,19.90
2018-12-27T05:48:43.170Z,19.50
2018-12-27T05:51:12.637Z,17.17
2018-12-27T05:53:42.171Z,17.83
2018-12-27T05:56:11.644Z,18.63
2018-12-27T05:58:41.179Z,17.57
2018-12-27T06:01:10.690Z,18.23
2018-12-27T06:03:40.190Z,17.77
2018-12-27T06:06:09.747Z,17.20
2018-12-27T06:08:39.248Z,18.57
2018-12-27T06:11:08.788Z,19.40
2018-12-27T06:13:39.186Z,20.17
2018-12-27T06:16:09.045Z,19.33
2018-12-27T06:18:38.550Z,15.53
2018-12-27T06:21:08.143Z,18.53
2018-12-27T06:23:37.649Z,18.37
2018-12-27T06:26:07.183Z,14.97
2018-12-27T06:28:36.767Z,18.13
2018-12-27T06:31:06.333Z,17.50
2018-12-27T06:33:35.811Z,18.17
2018-12-27T06:36:05.362Z,18.97
2018-12-27T06:38:34.875Z,17.70
2018-12-27T06:41:04.336Z,19.90
2018-12-27T06:43:33.885Z,21.77
2018-12-27T06:46:03.392Z,18.20
2018-12-27T06:48:32.891Z,19.20
2018-12-27T06:51:02.419Z,17.37
2018-12-27T06:53:31.903Z,21.37
2018-12-27T06:56:01.480Z,22.77
2018-12-27T06:58:37.594Z,21.33
2018-12-27T07:01:02.156Z,16.97
2018-12-27T07:03:31.770Z,19.07
2018-12-27T07:06:01.308Z,19.77
2018-12-27T07:08:30.772Z,18.47
2018-12-27T07:11:00.314Z,19.80
2018-12-27T07:13:29.820Z,17.30
2018-12-27T07:15:59.340Z,20.33
2018-12-27T07:18:28.811Z,18.83
2018-12-27T07:20:58.348Z,18.77
2018-12-27T07:23:27.817Z,22.90
2018-12-27T07:25:57.370Z,18.50
2018-12-27T07:28:26.912Z,16.33
2018-12-27T07:30:56.482Z,20.97
2018-12-27T07:33:25.955Z,18.97
2018-12-27T07:35:55.450Z,20.57
2018-12-27T07:38:24.906Z,21.47
2018-12-27T07:40:54.410Z,21.80
2018-12-27T07:43:23.972Z,25.17
2018-12-27T07:45:53.495Z,22.40
2018-12-27T07:48:23.053Z,24.10
2018-12-27T07:50:52.533Z,22.03
2018-12-27T07:53:22.046Z,23.03
2018-12-27T07:55:51.476Z,16.50
2018-12-27T07:58:20.968Z,21.73
2018-12-27T08:00:50.486Z,20.97
2018-12-27T08:03:19.999Z,21.93
2018-12-27T08:05:49.461Z,23.30
2018-12-27T08:08:18.986Z,19.97
2018-12-27T08:10:48.514Z,16.90
2018-12-27T08:13:17.971Z,22.00
2018-12-27T08:15:47.479Z,21.07
2018-12-27T08:18:17.030Z,24.30
2018-12-27T08:20:46.740Z,18.87
2018-12-27T08:23:16.205Z,17.73
2018-12-27T08:25:45.801Z,23.07
2018-12-27T08:28:15.326Z,18.03
2018-12-27T08:30:44.853Z,18.87
2018-12-27T08:33:14.440Z,18.07
2018-12-27T08:35:44.012Z,20.13
2018-12-27T08:38:13.484Z,18.73
2018-12-27T08:40:43.062Z,15.33
2018-12-27T08:43:12.568Z,19.67
2018-12-27T08:45:42.016Z,19.30
2018-12-27T08:48:11.524Z,19.23
2018-12-27T08:50:41.027Z,17.13
2018-12-27T08:53:10.541Z,18.13
2018-12-27T08:55:40.074Z,18.00
2018-12-27T08:58:09.589Z,17.20
2018-12-27T09:00:39.073Z,14.30
2018-12-27T09:03:08.608Z,16.70
2018-12-27T09:05:38.110Z,20.13
2018-12-27T09:08:07.661Z,16.10
2018-12-27T09:10:37.171Z,20.83
2018-12-27T09:13:06.726Z,17.07
2018-12-27T09:15:36.299Z,16.40
2018-12-27T09:18:05.834Z,21.10
2018-12-27T09:20:35.345Z,20.37
2018-12-27T09:23:04.993Z,20.90
2018-12-27T09:25:34.594Z,17.63
2018-12-27T09:28:04.112Z,18.37
2018-12-27T09:30:33.716Z,18.07
2018-12-27T09:33:03.276Z,18.33
2018-12-27T09:35:32.789Z,21.17
2018-12-27T09:38:02.284Z,18.50
2018-12-27T09:40:32.105Z,17.87
2018-12-27T09:43:01.661Z,14.90
2018-12-27T09:45:31.318Z,19.57
2018-12-27T09:48:00.909Z,13.63
2018-12-27T09:50:30.577Z,17.23
2018-12-27T09:53:00.093Z,15.80
2018-12-27T09:55:29.737Z,17.50
2018-12-27T09:57:59.291Z,19.83
2018-12-27T10:00:28.918Z,15.37
2018-12-27T10:02:58.458Z,15.03
2018-12-27T10:05:33.928Z,17.67
2018-12-27T10:07:59.273Z,18.47
2018-12-27T10:10:28.808Z,20.07
2018-12-27T10:12:58.434Z,15.37
2018-12-27T10:15:27.968Z,16.40
2018-12-27T10:17:57.633Z,16.10
2018-12-27T10:20:27.187Z,13.97
2018-12-27T10:22:56.914Z,17.33
2018-12-27T10:25:26.494Z,18.17
2018-12-27T10:27:56.072Z,15.93
2018-12-27T10:30:25.603Z,15.47
2018-12-27T10:32:55.275Z,15.67
2018-12-27T10:35:24.830Z,15.13
2018-12-27T10:37:54.549Z,17.07
2018-12-27T10:40:24.096Z,15.10
2018-12-27T10:42:53.605Z,17.90
2018-12-27T10:45:23.214Z,14.80
2018-12-27T10:47:52.822Z,15.13
2018-12-27T10:50:22.268Z,14.27
2018-12-27T10:52:51.803Z,12.90
2018-12-27T10:55:21.378Z,16.77
2018-12-27T10:57:50.985Z,14.87
2018-12-27T11:00:21.181Z,14.87
2018-12-27T11:02:50.685Z,16.47
2018-12-27T11:05:21.738Z,13.73
2018-12-27T11:07:51.315Z,14.20
2018-12-27T11:10:20.818Z,16.97
2018-12-27T11:12:50.405Z,16.53
2018-12-27T11:15:19.946Z,13.10
2018-12-27T11:17:49.484Z,13.83
2018-12-27T11:20:19.043Z,15.23
2018-12-27T11:22:48.745Z,14.20
2018-12-27T11:25:18.214Z,13.07
2018-12-27T11:27:47.769Z,14.77
2018-12-27T11:30:17.226Z,16.53
2018-12-27T11:32:46.808Z,15.70
2018-12-27T11:35:17.178Z,17.37
2018-12-27T11:37:46.592Z,14.03
2018-12-27T11:40:16.264Z,13.30
2018-12-27T11:42:45.857Z,14.23
2018-12-27T11:45:15.703Z,14.57
2018-12-27T11:47:45.336Z,17.23
2018-12-27T11:50:14.931Z,15.87
2018-12-27T11:52:44.450Z,12.40
2018-12-27T11:55:14.619Z,14.33
2018-12-27T11:57:44.176Z,12.17
2018-12-27T12:00:13.730Z,13.00
2018-12-27T12:02:43.249Z,10.57
2018-12-27T12:05:12.963Z,12.00
2018-12-27T12:07:42.546Z,11.27
2018-12-27T12:10:12.059Z,12.37
2018-12-27T12:12:41.907Z,12.43
2018-12-27T12:15:11.366Z,11.17
2018-12-27T12:17:40.971Z,12.97
2018-12-27T12:20:10.749Z,9.50
2018-12-27T12:22:40.396Z,12.17
2018-12-27T12:25:10.019Z,11.83
2018-12-27T12:27:39.637Z,11.83
2018-12-27T12:30:09.210Z,11.20
2018-12-27T12:32:38.930Z,12.60
2018-12-27T12:35:08.465Z,13.40
2018-12-27T12:37:38.308Z,12.23
2018-12-27T12:40:08.078Z,12.63
2018-12-27T12:42:37.654Z,12.07
2018-12-27T12:45:07.832Z,13.30
2018-12-27T12:47:37.442Z,10.20
2018-12-27T12:50:08.126Z,12.10
2018-12-27T12:52:39.259Z,11.40
2018-12-27T12:55:09.073Z,10.87
2018-12-27T12:57:38.615Z,11.90
2018-12-27T13:00:10.529Z,13.37
2018-12-27T13:02:39.994Z,8.83
2018-12-27T13:05:09.454Z,13.33
2018-12-27T13:07:39.074Z,9.03
2018-12-27T13:10:08.507Z,11.33
2018-12-27T13:12:38.271Z,11.10
2018-12-27T13:15:08.141Z,12.23
2018-12-27T13:17:40.851Z,10.33
2018-12-27T13:20:11.146Z,9.63
2018-12-27T13:22:41.017Z,10.00
2018-12-27T13:25:12.034Z,11.60
2018-12-27T13:27:41.546Z,11.13
2018-12-27T13:30:11.221Z,13.03
2018-12-27T13:32:40.723Z,7.97
2018-12-27T13:35:10.469Z,8.87
2018-12-27T13:37:40.028Z,10.00
2018-12-27T13:40:09.579Z,6.93
2018-12-27T13:42:39.141Z,11.97
2018-12-27T13:45:08.803Z,9.03
2018-12-27T13:47:38.362Z,11.23
2018-12-27T13:50:08.328Z,10.90
2018-12-27T13:52:38.069Z,11.00
2018-12-27T13:55:07.582Z,12.10
2018-12-27T13:57:37.090Z,14.37
2018-12-27T14:00:07.265Z,10.37
2018-12-27T14:02:36.755Z,12.17
2018-12-27T14:05:06.640Z,11.83
2018-12-27T14:07:36.199Z,9.20
2018-12-27T14:10:06.868Z,11.47
2018-12-27T14:12:37.599Z,10.07
2018-12-27T14:15:07.354Z,10.67
2018-12-27T14:17:36.930Z,10.87
2018-12-27T14:20:07.247Z,8.47
2018-12-27T14:22:36.806Z,11.00
2018-12-27T14:25:06.453Z,13.73
2018-12-27T14:27:35.969Z,12.23
2018-12-27T14:30:06.146Z,10.67
2018-12-27T14:32:35.783Z,12.23
2018-12-27T14:35:05.493Z,11.13
2018-12-27T14:37:35.064Z,11.33
2018-12-27T14:40:05.031Z,12.17
2018-12-27T14:42:34.626Z,11.47
2018-12-27T14:45:04.442Z,11.10
2018-12-27T14:47:34.052Z,9.83
2018-12-27T14:50:03.702Z,9.70
2018-12-27T14:52:33.326Z,13.53
2018-12-27T14:55:02.875Z,13.60
2018-12-27T14:57:32.428Z,11.13
2018-12-27T15:00:02.089Z,12.10
2018-12-27T15:02:31.638Z,12.43
2018-12-27T15:05:01.181Z,10.40
2018-12-27T15:07:30.687Z,13.10
2018-12-27T15:10:00.243Z,11.10
2018-12-27T15:12:29.899Z,12.00
2018-12-27T15:14:59.368Z,12.70
2018-12-27T15:17:28.908Z,12.13
2018-12-27T15:19:58.467Z,15.80
2018-12-27T15:22:31.219Z,13.50
2018-12-27T15:25:00.756Z,11.70
2018-12-27T15:27:30.433Z,11.33
2018-12-27T15:29:59.938Z,15.30
2018-12-27T15:32:29.480Z,19.07
2018-12-27T15:34:59.080Z,16.50
2018-12-27T15:37:28.643Z,13.07
2018-12-27T15:39:58.135Z,13.97
2018-12-27T15:42:27.673Z,14.27
2018-12-27T15:44:57.151Z,12.83
2018-12-27T15:47:26.705Z,10.83
2018-12-27T15:49:56.247Z,16.23
2018-12-27T15:52:25.788Z,16.17
2018-12-27T15:54:55.358Z,16.60
2018-12-27T15:57:24.847Z,16.23
2018-12-27T15:59:54.434Z,15.90
2018-12-27T16:02:23.991Z,17.40
2018-12-27T16:04:53.544Z,15.67
2018-12-27T16:07:23.151Z,14.53
2018-12-27T16:09:52.757Z,18.27
2018-12-27T16:12:22.548Z,12.60
2018-12-27T16:14:52.074Z,12.87
2018-12-27T16:17:21.580Z,17.57
2018-12-27T16:19:51.156Z,13.53
2018-12-27T16:22:20.748Z,15.63
2018-12-27T16:24:50.246Z,13.77
2018-12-27T16:27:19.905Z,20.43
2018-12-27T16:29:49.461Z,14.27
2018-12-27T16:32:18.969Z,14.63
2018-12-27T16:34:48.478Z,12.53
2018-12-27T16:37:17.999Z,15.57
2018-12-27T16:39:47.430Z,15.00
2018-12-27T16:42:21.875Z,12.73
2018-12-27T16:44:48.186Z,12.97
2018-12-27T16:47:17.734Z,17.07
2018-12-27T16:49:47.215Z,13.17
2018-12-27T16:52:16.754Z,18.90
2018-12-27T16:54:46.352Z,15.30
2018-12-27T16:57:19.693Z,16.87
2018-12-27T17:00:06.920Z,15.83
2018-12-27T17:02:36.435Z,13.73
2018-12-27T17:05:05.952Z,13.27
2018-12-27T17:07:36.693Z,12.70
2018-12-27T17:10:06.392Z,15.07
2018-12-27T17:12:36.050Z,14.73
2018-12-27T17:15:06.251Z,18.93
2018-12-27T17:17:35.857Z,13.10
2018-12-27T17:20:05.524Z,12.87
2018-12-27T17:22:35.070Z,14.73
2018-12-27T17:25:04.538Z,19.00
2018-12-27T17:27:34.194Z,17.77
2018-12-27T17:30:03.904Z,12.30
2018-12-27T17:32:33.468Z,13.00
2018-12-27T17:35:03.022Z,13.83
2018-12-27T17:37:32.772Z,16.43
2018-12-27T17:40:02.196Z,21.40
2018-12-27T17:42:31.784Z,16.00
2018-12-27T17:45:01.234Z,17.50
2018-12-27T17:47:30.799Z,17.80
2018-12-27T17:50:00.648Z,21.63
2018-12-27T17:52:30.481Z,15.30
2018-12-27T17:55:00.159Z,14.37
2018-12-27T17:57:29.675Z,14.77
2018-12-27T17:59:59.198Z,15.67
2018-12-27T18:02:28.855Z,15.20
2018-12-27T18:05:00.884Z,12.73
2018-12-27T18:07:30.922Z,16.60
2018-12-27T18:10:00.602Z,13.20
2018-12-27T18:12:31.171Z,13.97
2018-12-27T18:15:02.457Z,16.33
2018-12-27T18:17:32.007Z,16.33
2018-12-27T18:20:01.567Z,18.50
2018-12-27T18:22:31.272Z,12.80
2018-12-27T18:25:00.814Z,11.43
2018-12-27T18:27:30.358Z,16.43
2018-12-27T18:29:59.848Z,11.97
2018-12-27T18:32:29.393Z,16.03
2018-12-27T18:35:00.699Z,16.03
2018-12-27T18:37:30.401Z,15.10
2018-12-27T18:40:00.165Z,13.70
2018-12-27T18:42:29.675Z,15.20
2018-12-27T18:44:59.170Z,11.60
2018-12-27T18:47:28.679Z,12.53
2018-12-27T18:49:59.426Z,11.30
2018-12-27T18:52:29.111Z,12.23
2018-12-27T18:54:58.653Z,13.13
2018-12-27T18:57:28.147Z,13.23
2018-12-27T18:59:57.685Z,11.97
2018-12-27T19:02:27.192Z,9.63
2018-12-27T19:04:56.732Z,16.23
2018-12-27T19:07:26.176Z,13.60
2018-12-27T19:09:55.746Z,12.47
2018-12-27T19:13:00.971Z,12.77
2018-12-27T19:15:31.615Z,13.50
2018-12-27T19:18:14.804Z,10.40
2018-12-27T19:20:47.076Z,13.97
2018-12-27T19:23:19.105Z,13.83
2018-12-27T19:25:48.612Z,11.57
2018-12-27T19:28:18.162Z,11.47
2018-12-27T19:30:47.671Z,14.70
2018-12-27T19:33:17.362Z,12.40
2018-12-27T19:35:46.841Z,12.90
2018-12-27T19:38:16.389Z,11.93
2018-12-27T19:40:45.916Z,10.47
2018-12-27T19:43:15.478Z,14.70
2018-12-27T19:45:45.003Z,13.27
2018-12-27T19:48:15.655Z,10.97
2018-12-27T19:50:45.150Z,9.27
2018-12-27T19:53:14.759Z,13.17
2018-12-27T19:55:44.297Z,12.47
2018-12-27T19:58:13.864Z,11.13
2018-12-27T20:00:43.450Z,14.00
2018-12-27T20:03:15.120Z,10.93
2018-12-27T20:05:44.672Z,12.97
2018-12-27T20:08:14.538Z,17.07
2018-12-27T20:10:44.158Z,12.63
2018-12-27T20:13:13.741Z,20.03
2018-12-27T20:15:45.033Z,13.73
2018-12-27T20:18:14.635Z,17.03
2018-12-27T20:20:44.180Z,11.90
2018-12-27T20:23:13.709Z,13.53
2018-12-27T20:25:45.667Z,13.47
2018-12-27T20:28:15.223Z,15.37
2018-12-27T20:30:44.797Z,13.60
2018-12-27T20:33:14.335Z,17.73
2018-12-27T20:35:43.861Z,15.97
2018-12-27T20:38:13.502Z,15.53
2018-12-27T20:40:43.345Z,17.97
2018-12-27T20:43:12.880Z,16.37
2018-12-27T20:45:42.421Z,14.67
2018-12-27T20:48:12.021Z,13.60
2018-12-27T20:50:41.538Z,21.73
2018-12-27T20:53:12.334Z,14.50
2018-12-27T20:55:41.875Z,15.00
2018-12-27T20:58:11.451Z,18.10
2018-12-27T21:00:41.101Z,15.00
2018-12-27T21:03:10.699Z,16.77
2018-12-27T21:05:40.467Z,17.07
2018-12-27T21:08:14.083Z,16.20
2018-12-27T21:10:41.791Z,18.60
2018-12-27T21:13:11.377Z,22.63
2018-12-27T21:15:42.373Z,19.87
2018-12-27T21:18:11.889Z,24.10
2018-12-27T21:20:42.881Z,20.77
2018-12-27T21:23:12.463Z,18.40
2018-12-27T21:25:43.167Z,24.80
2018-12-27T21:28:12.791Z,20.00
2018-12-27T21:30:42.414Z,21.00
2018-12-27T21:33:12.029Z,21.90
2018-12-27T21:35:42.094Z,18.50
2018-12-27T21:38:11.689Z,22.57
2018-12-27T21:40:41.525Z,26.40
2018-12-27T21:43:12.154Z,18.03
2018-12-27T21:45:41.804Z,24.77
2018-12-27T21:48:11.348Z,19.47
2018-12-27T21:50:40.941Z,19.50
2018-12-27T21:53:11.137Z,21.57
2018-12-27T21:55:40.743Z,21.67
2018-12-27T21:58:10.398Z,22.40
2018-12-27T22:00:39.975Z,20.07
2018-12-27T22:03:09.580Z,22.53
2018-12-27T22:05:39.261Z,21.73
2018-12-27T22:08:09.004Z,20.90
2018-12-27T22:10:38.811Z,18.37
2018-12-27T22:13:08.404Z,19.43
2018-12-27T22:15:37.975Z,18.47
2018-12-27T22:18:07.642Z,23.87
2018-12-27T22:20:37.140Z,21.37
2018-12-27T22:23:06.794Z,22.80
2018-12-27T22:25:36.651Z,26.47
2018-12-27T22:28:06.224Z,18.70
2018-12-27T22:30:35.928Z,19.03
2018-12-27T22:33:05.616Z,17.90
2018-12-27T22:35:35.253Z,20.90
2018-12-27T22:38:04.881Z,19.07
2018-12-27T22:40:34.519Z,18.00
2018-12-27T22:43:04.260Z,23.93
2018-12-27T22:45:34.177Z,17.90
2018-12-27T22:48:03.744Z,18.27
2018-12-27T22:50:33.586Z,18.17
2018-12-27T22:53:03.050Z,18.70
2018-12-27T22:55:32.675Z,18.73
2018-12-27T22:58:02.421Z,20.63
2018-12-27T23:00:37.652Z,20.97
2018-12-27T23:03:07.362Z,16.53
2018-12-27T23:05:36.921Z,24.63
2018-12-27T23:08:08.211Z,19.03
2018-12-27T23:10:37.667Z,18.87
2018-12-27T23:13:07.267Z,20.90
2018-12-27T23:15:36.833Z,18.87
2018-12-27T23:18:06.380Z,21.97
2018-12-27T23:20:35.940Z,19.87
2018-12-27T23:23:05.491Z,17.60
2018-12-27T23:25:35.036Z,19.23
2018-12-27T23:28:04.612Z,18.93
2018-12-27T23:30:34.160Z,21.23
2018-12-27T23:33:03.706Z,20.50
2018-12-27T23:35:33.221Z,22.40
2018-12-27T23:38:02.786Z,19.90
2018-12-27T23:40:32.294Z,18.77
2018-12-27T23:43:01.844Z,19.70
2018-12-27T23:45:31.426Z,18.70
2018-12-27T23:48:00.985Z,21.37
2018-12-27T23:50:30.506Z,19.30
2018-12-27T23:53:00.049Z,17.33
2018-12-27T23:55:29.601Z,20.03
2018-12-27T23:57:59.136Z,18.73
